sensor_id;sensor_type;location;lat;lon;timestamp;P1;durP1;ratioP1;P2;durP2;ratioP2
22525;SDS011;11429;50.842;4.386;2023-03-01T00:01:43;11.75;;;8.60;;
22525;SDS011;11429;50.842;4.386;2023-03-01T00:04:12;15.35;;;8.25;;
22525;SDS011;11429;50.842;4.386;2023-03-01T00:06:37;11.30;;;8.40;;
22525;SDS011;11429;50.842;4.386;2023-03-01T00:09:04;9.20;;;7.97;;
22525;SDS011;11429;50.842;4.386;2023-03-01T00:11:30;12.55;;;8.07;;
22525;SDS011;11429;50.842;4.386;2023-03-01T00:13:59;9.95;;;8.18;;
22525;SDS011;11429;50.842;4.386;2023-03-01T00:16:37;16.65;;;8.23;;
22525;SDS011;11429;50.842;4.386;2023-03-01T00:19:05;10.55;;;8.15;;
22525;SDS011;11429;50.842;4.386;2023-03-01T00:21:37;11.85;;;8.63;;
22525;SDS011;11429;50.842;4.386;2023-03-01T00:24:03;10.10;;;8.25;;
22525;SDS011;11429;50.842;4.386;2023-03-01T00:26:30;10.60;;;8.00;;
22525;SDS011;11429;50.842;4.386;2023-03-01T00:28:57;10.88;;;8.32;;
22525;SDS011;11429;50.842;4.386;2023-03-01T00:31:26;14.35;;;8.15;;
22525;SDS011;11429;50.842;4.386;2023-03-01T00:33:54;12.82;;;8.65;;
22525;SDS011;11429;50.842;4.386;2023-03-01T00:36:22;9.65;;;7.82;;
22525;SDS011;11429;50.842;4.386;2023-03-01T00:38:50;11.50;;;8.45;;
22525;SDS011;11429;50.842;4.386;2023-03-01T00:41:16;14.20;;;8.32;;
22525;SDS011;11429;50.842;4.386;2023-03-01T00:43:44;11.18;;;8.77;;
22525;SDS011;11429;50.842;4.386;2023-03-01T00:46:13;12.13;;;8.73;;
22525;SDS011;11429;50.842;4.386;2023-03-01T00:48:43;10.93;;;8.40;;
22525;SDS011;11429;50.842;4.386;2023-03-01T00:53:46;10.50;;;8.27;;
22525;SDS011;11429;50.842;4.386;2023-03-01T00:56:20;11.82;;;8.90;;
22525;SDS011;11429;50.842;4.386;2023-03-01T00:58:48;9.60;;;8.38;;
22525;SDS011;11429;50.842;4.386;2023-03-01T01:03:51;12.40;;;8.77;;
22525;SDS011;11429;50.842;4.386;2023-03-01T01:06:29;11.48;;;8.20;;
22525;SDS011;11429;50.842;4.386;2023-03-01T01:09:23;10.48;;;8.70;;
22525;SDS011;11429;50.842;4.386;2023-03-01T01:11:55;10.30;;;8.27;;
22525;SDS011;11429;50.842;4.386;2023-03-01T01:14:20;12.90;;;8.60;;
22525;SDS011;11429;50.842;4.386;2023-03-01T01:16:47;10.82;;;7.95;;
22525;SDS011;11429;50.842;4.386;2023-03-01T01:19:14;12.55;;;8.38;;
22525;SDS011;11429;50.842;4.386;2023-03-01T01:21:42;12.90;;;8.15;;
22525;SDS011;11429;50.842;4.386;2023-03-01T01:24:08;10.32;;;8.32;;
22525;SDS011;11429;50.842;4.386;2023-03-01T01:26:34;12.80;;;8.82;;
22525;SDS011;11429;50.842;4.386;2023-03-01T01:29:00;11.80;;;8.65;;
22525;SDS011;11429;50.842;4.386;2023-03-01T01:31:34;12.15;;;8.48;;
22525;SDS011;11429;50.842;4.386;2023-03-01T01:34:04;12.55;;;8.40;;
22525;SDS011;11429;50.842;4.386;2023-03-01T01:36:34;13.20;;;8.60;;
22525;SDS011;11429;50.842;4.386;2023-03-01T01:39:00;13.98;;;8.55;;
22525;SDS011;11429;50.842;4.386;2023-03-01T01:41:27;13.38;;;8.30;;
22525;SDS011;11429;50.842;4.386;2023-03-01T01:49:35;12.38;;;8.45;;
22525;SDS011;11429;50.842;4.386;2023-03-01T01:52:16;10.30;;;7.93;;
22525;SDS011;11429;50.842;4.386;2023-03-01T01:55:05;9.63;;;7.97;;
22525;SDS011;11429;50.842;4.386;2023-03-01T01:57:34;13.48;;;9.13;;
22525;SDS011;11429;50.842;4.386;2023-03-01T02:00:08;13.60;;;8.43;;
22525;SDS011;11429;50.842;4.386;2023-03-01T02:02:39;9.80;;;8.00;;
22525;SDS011;11429;50.842;4.386;2023-03-01T02:08:00;12.07;;;8.05;;
22525;SDS011;11429;50.842;4.386;2023-03-01T02:10:26;10.95;;;9.07;;
22525;SDS011;11429;50.842;4.386;2023-03-01T02:12:54;10.40;;;8.65;;
22525;SDS011;11429;50.842;4.386;2023-03-01T02:15:21;12.70;;;7.72;;
22525;SDS011;11429;50.842;4.386;2023-03-01T02:17:48;11.35;;;8.15;;
22525;SDS011;11429;50.842;4.386;2023-03-01T02:22:58;10.65;;;8.60;;
22525;SDS011;11429;50.842;4.386;2023-03-01T02:30:41;13.10;;;8.10;;
22525;SDS011;11429;50.842;4.386;2023-03-01T02:33:30;10.57;;;8.10;;
22525;SDS011;11429;50.842;4.386;2023-03-01T02:36:01;10.98;;;8.07;;
22525;SDS011;11429;50.842;4.386;2023-03-01T02:38:31;10.65;;;8.35;;
22525;SDS011;11429;50.842;4.386;2023-03-01T02:40:58;14.02;;;9.07;;
22525;SDS011;11429;50.842;4.386;2023-03-01T02:43:33;9.95;;;8.30;;
22525;SDS011;11429;50.842;4.386;2023-03-01T02:46:08;12.65;;;8.85;;
22525;SDS011;11429;50.842;4.386;2023-03-01T02:48:57;13.60;;;8.25;;
22525;SDS011;11429;50.842;4.386;2023-03-01T02:54:25;10.40;;;8.73;;
22525;SDS011;11429;50.842;4.386;2023-03-01T02:57:05;9.65;;;8.20;;
22525;SDS011;11429;50.842;4.386;2023-03-01T02:59:33;11.30;;;8.73;;
22525;SDS011;11429;50.842;4.386;2023-03-01T03:02:07;10.80;;;8.55;;
22525;SDS011;11429;50.842;4.386;2023-03-01T03:04:45;12.77;;;8.77;;
22525;SDS011;11429;50.842;4.386;2023-03-01T03:07:11;13.20;;;8.88;;
22525;SDS011;11429;50.842;4.386;2023-03-01T03:09:37;11.88;;;9.52;;
22525;SDS011;11429;50.842;4.386;2023-03-01T03:12:03;11.07;;;8.82;;
22525;SDS011;11429;50.842;4.386;2023-03-01T03:14:29;14.80;;;8.35;;
22525;SDS011;11429;50.842;4.386;2023-03-01T03:16:55;10.88;;;8.73;;
22525;SDS011;11429;50.842;4.386;2023-03-01T03:19:20;11.68;;;8.57;;
22525;SDS011;11429;50.842;4.386;2023-03-01T03:21:46;11.90;;;8.90;;
22525;SDS011;11429;50.842;4.386;2023-03-01T03:24:12;11.45;;;8.73;;
22525;SDS011;11429;50.842;4.386;2023-03-01T03:26:38;11.40;;;8.95;;
22525;SDS011;11429;50.842;4.386;2023-03-01T03:29:04;12.57;;;8.95;;
22525;SDS011;11429;50.842;4.386;2023-03-01T03:31:29;12.25;;;8.70;;
22525;SDS011;11429;50.842;4.386;2023-03-01T03:33:55;12.18;;;8.85;;
22525;SDS011;11429;50.842;4.386;2023-03-01T03:36:22;13.60;;;9.18;;
22525;SDS011;11429;50.842;4.386;2023-03-01T03:38:49;11.57;;;8.85;;
22525;SDS011;11429;50.842;4.386;2023-03-01T03:41:15;11.50;;;8.70;;
22525;SDS011;11429;50.842;4.386;2023-03-01T03:43:42;14.63;;;8.82;;
22525;SDS011;11429;50.842;4.386;2023-03-01T03:46:09;12.77;;;9.18;;
22525;SDS011;11429;50.842;4.386;2023-03-01T03:48:37;14.85;;;8.88;;
22525;SDS011;11429;50.842;4.386;2023-03-01T03:51:15;12.98;;;9.18;;
22525;SDS011;11429;50.842;4.386;2023-03-01T03:53:43;11.40;;;9.13;;
22525;SDS011;11429;50.842;4.386;2023-03-01T03:56:09;14.07;;;8.95;;
22525;SDS011;11429;50.842;4.386;2023-03-01T03:58:35;14.00;;;9.32;;
22525;SDS011;11429;50.842;4.386;2023-03-01T04:01:01;12.90;;;8.95;;
22525;SDS011;11429;50.842;4.386;2023-03-01T04:03:28;11.98;;;9.43;;
22525;SDS011;11429;50.842;4.386;2023-03-01T04:05:57;12.18;;;9.35;;
22525;SDS011;11429;50.842;4.386;2023-03-01T04:08:24;14.45;;;9.77;;
22525;SDS011;11429;50.842;4.386;2023-03-01T04:10:51;14.27;;;10.00;;
22525;SDS011;11429;50.842;4.386;2023-03-01T04:13:22;12.80;;;9.18;;
22525;SDS011;11429;50.842;4.386;2023-03-01T04:15:50;11.30;;;9.02;;
22525;SDS011;11429;50.842;4.386;2023-03-01T04:18:18;11.52;;;8.82;;
22525;SDS011;11429;50.842;4.386;2023-03-01T04:20:45;11.35;;;9.05;;
22525;SDS011;11429;50.842;4.386;2023-03-01T04:23:13;12.93;;;8.52;;
22525;SDS011;11429;50.842;4.386;2023-03-01T04:28:21;12.40;;;9.55;;
22525;SDS011;11429;50.842;4.386;2023-03-01T04:30:50;12.88;;;9.10;;
22525;SDS011;11429;50.842;4.386;2023-03-01T04:33:17;12.00;;;9.18;;
22525;SDS011;11429;50.842;4.386;2023-03-01T04:35:43;13.35;;;9.35;;
22525;SDS011;11429;50.842;4.386;2023-03-01T04:38:09;13.63;;;9.98;;
22525;SDS011;11429;50.842;4.386;2023-03-01T04:40:35;16.00;;;9.60;;
22525;SDS011;11429;50.842;4.386;2023-03-01T04:43:01;13.15;;;8.95;;
22525;SDS011;11429;50.842;4.386;2023-03-01T04:45:27;12.40;;;9.40;;
22525;SDS011;11429;50.842;4.386;2023-03-01T04:47:53;17.65;;;9.55;;
22525;SDS011;11429;50.842;4.386;2023-03-01T04:50:19;16.63;;;9.82;;
22525;SDS011;11429;50.842;4.386;2023-03-01T04:52:46;11.40;;;9.30;;
22525;SDS011;11429;50.842;4.386;2023-03-01T04:55:12;11.90;;;8.73;;
22525;SDS011;11429;50.842;4.386;2023-03-01T04:57:38;12.60;;;9.07;;
22525;SDS011;11429;50.842;4.386;2023-03-01T05:00:06;12.30;;;8.75;;
22525;SDS011;11429;50.842;4.386;2023-03-01T05:02:46;11.48;;;8.95;;
22525;SDS011;11429;50.842;4.386;2023-03-01T05:05:20;11.87;;;9.00;;
22525;SDS011;11429;50.842;4.386;2023-03-01T05:07:52;15.20;;;9.63;;
22525;SDS011;11429;50.842;4.386;2023-03-01T05:10:19;14.35;;;9.43;;
22525;SDS011;11429;50.842;4.386;2023-03-01T05:12:45;12.95;;;9.00;;
22525;SDS011;11429;50.842;4.386;2023-03-01T05:15:11;15.60;;;9.65;;
22525;SDS011;11429;50.842;4.386;2023-03-01T05:17:37;13.30;;;9.57;;
22525;SDS011;11429;50.842;4.386;2023-03-01T05:20:03;14.40;;;9.57;;
22525;SDS011;11429;50.842;4.386;2023-03-01T05:22:33;13.68;;;8.98;;
22525;SDS011;11429;50.842;4.386;2023-03-01T05:24:59;12.68;;;8.82;;
22525;SDS011;11429;50.842;4.386;2023-03-01T05:27:25;15.10;;;9.52;;
22525;SDS011;11429;50.842;4.386;2023-03-01T05:29:51;13.23;;;9.55;;
22525;SDS011;11429;50.842;4.386;2023-03-01T05:32:16;15.57;;;10.15;;
22525;SDS011;11429;50.842;4.386;2023-03-01T05:34:42;12.38;;;9.27;;
22525;SDS011;11429;50.842;4.386;2023-03-01T05:37:09;13.68;;;9.98;;
22525;SDS011;11429;50.842;4.386;2023-03-01T05:39:34;14.82;;;9.30;;
22525;SDS011;11429;50.842;4.386;2023-03-01T05:42:01;13.25;;;9.93;;
22525;SDS011;11429;50.842;4.386;2023-03-01T05:44:27;13.35;;;9.68;;
22525;SDS011;11429;50.842;4.386;2023-03-01T05:46:53;12.85;;;9.60;;
22525;SDS011;11429;50.842;4.386;2023-03-01T05:49:20;14.05;;;9.60;;
22525;SDS011;11429;50.842;4.386;2023-03-01T05:51:49;13.23;;;9.27;;
22525;SDS011;11429;50.842;4.386;2023-03-01T05:54:17;13.13;;;9.43;;
22525;SDS011;11429;50.842;4.386;2023-03-01T05:56:43;18.92;;;10.00;;
22525;SDS011;11429;50.842;4.386;2023-03-01T05:59:09;13.20;;;9.85;;
22525;SDS011;11429;50.842;4.386;2023-03-01T06:01:35;17.48;;;10.63;;
22525;SDS011;11429;50.842;4.386;2023-03-01T06:04:02;13.63;;;9.18;;
22525;SDS011;11429;50.842;4.386;2023-03-01T06:06:28;13.40;;;9.52;;
22525;SDS011;11429;50.842;4.386;2023-03-01T06:08:55;15.82;;;9.75;;
22525;SDS011;11429;50.842;4.386;2023-03-01T06:11:21;13.77;;;10.23;;
22525;SDS011;11429;50.842;4.386;2023-03-01T06:13:46;16.40;;;9.95;;
22525;SDS011;11429;50.842;4.386;2023-03-01T06:16:13;14.75;;;9.25;;
22525;SDS011;11429;50.842;4.386;2023-03-01T06:18:39;11.80;;;10.07;;
22525;SDS011;11429;50.842;4.386;2023-03-01T06:21:05;12.43;;;9.48;;
22525;SDS011;11429;50.842;4.386;2023-03-01T06:23:32;15.05;;;10.73;;
22525;SDS011;11429;50.842;4.386;2023-03-01T06:25:58;16.08;;;9.43;;
22525;SDS011;11429;50.842;4.386;2023-03-01T06:28:24;13.95;;;9.90;;
22525;SDS011;11429;50.842;4.386;2023-03-01T06:30:50;13.73;;;10.38;;
22525;SDS011;11429;50.842;4.386;2023-03-01T06:33:18;16.63;;;10.27;;
22525;SDS011;11429;50.842;4.386;2023-03-01T06:35:49;13.68;;;10.32;;
22525;SDS011;11429;50.842;4.386;2023-03-01T06:38:16;17.33;;;10.05;;
22525;SDS011;11429;50.842;4.386;2023-03-01T06:40:44;13.52;;;10.02;;
22525;SDS011;11429;50.842;4.386;2023-03-01T06:43:11;15.07;;;10.40;;
22525;SDS011;11429;50.842;4.386;2023-03-01T06:45:37;13.38;;;10.02;;
22525;SDS011;11429;50.842;4.386;2023-03-01T06:48:04;13.55;;;9.75;;
22525;SDS011;11429;50.842;4.386;2023-03-01T06:50:30;17.95;;;10.93;;
22525;SDS011;11429;50.842;4.386;2023-03-01T06:52:56;18.10;;;10.77;;
22525;SDS011;11429;50.842;4.386;2023-03-01T06:55:22;15.98;;;10.52;;
22525;SDS011;11429;50.842;4.386;2023-03-01T06:57:48;14.85;;;10.38;;
22525;SDS011;11429;50.842;4.386;2023-03-01T07:00:18;11.95;;;9.68;;
22525;SDS011;11429;50.842;4.386;2023-03-01T07:02:45;16.85;;;11.02;;
22525;SDS011;11429;50.842;4.386;2023-03-01T07:05:10;13.63;;;10.35;;
22525;SDS011;11429;50.842;4.386;2023-03-01T07:07:37;17.10;;;9.70;;
22525;SDS011;11429;50.842;4.386;2023-03-01T07:10:03;15.57;;;10.15;;
22525;SDS011;11429;50.842;4.386;2023-03-01T07:12:29;15.45;;;10.70;;
22525;SDS011;11429;50.842;4.386;2023-03-01T07:14:54;16.50;;;11.27;;
22525;SDS011;11429;50.842;4.386;2023-03-01T07:17:20;16.15;;;9.98;;
22525;SDS011;11429;50.842;4.386;2023-03-01T07:19:46;15.02;;;11.05;;
22525;SDS011;11429;50.842;4.386;2023-03-01T07:22:12;16.10;;;10.10;;
22525;SDS011;11429;50.842;4.386;2023-03-01T07:24:38;15.23;;;10.23;;
22525;SDS011;11429;50.842;4.386;2023-03-01T07:27:03;16.17;;;10.55;;
22525;SDS011;11429;50.842;4.386;2023-03-01T07:29:29;17.20;;;10.13;;
22525;SDS011;11429;50.842;4.386;2023-03-01T07:31:56;14.55;;;10.55;;
22525;SDS011;11429;50.842;4.386;2023-03-01T07:34:22;14.75;;;10.48;;
22525;SDS011;11429;50.842;4.386;2023-03-01T07:36:47;14.32;;;10.32;;
22525;SDS011;11429;50.842;4.386;2023-03-01T07:39:13;17.45;;;10.43;;
22525;SDS011;11429;50.842;4.386;2023-03-01T07:41:39;20.92;;;11.35;;
22525;SDS011;11429;50.842;4.386;2023-03-01T07:44:04;18.65;;;11.85;;
22525;SDS011;11429;50.842;4.386;2023-03-01T07:46:30;12.95;;;9.95;;
22525;SDS011;11429;50.842;4.386;2023-03-01T07:48:56;15.75;;;10.15;;
22525;SDS011;11429;50.842;4.386;2023-03-01T07:51:23;21.52;;;15.07;;
22525;SDS011;11429;50.842;4.386;2023-03-01T07:53:49;14.32;;;10.88;;
22525;SDS011;11429;50.842;4.386;2023-03-01T07:56:15;17.17;;;11.00;;
22525;SDS011;11429;50.842;4.386;2023-03-01T07:58:43;24.30;;;10.65;;
22525;SDS011;11429;50.842;4.386;2023-03-01T08:01:11;14.40;;;10.68;;
22525;SDS011;11429;50.842;4.386;2023-03-01T08:03:39;14.57;;;10.05;;
22525;SDS011;11429;50.842;4.386;2023-03-01T08:06:06;17.25;;;10.93;;
22525;SDS011;11429;50.842;4.386;2023-03-01T08:08:33;13.23;;;10.43;;
22525;SDS011;11429;50.842;4.386;2023-03-01T08:11:00;14.52;;;10.10;;
22525;SDS011;11429;50.842;4.386;2023-03-01T08:13:26;26.17;;;10.68;;
22525;SDS011;11429;50.842;4.386;2023-03-01T08:15:52;19.13;;;11.00;;
22525;SDS011;11429;50.842;4.386;2023-03-01T08:18:18;14.85;;;10.30;;
22525;SDS011;11429;50.842;4.386;2023-03-01T08:20:45;13.02;;;10.23;;
22525;SDS011;11429;50.842;4.386;2023-03-01T08:23:11;16.52;;;10.88;;
22525;SDS011;11429;50.842;4.386;2023-03-01T08:25:37;16.85;;;11.52;;
22525;SDS011;11429;50.842;4.386;2023-03-01T08:28:03;13.45;;;10.60;;
22525;SDS011;11429;50.842;4.386;2023-03-01T08:30:29;13.50;;;10.65;;
22525;SDS011;11429;50.842;4.386;2023-03-01T08:32:55;15.65;;;10.60;;
22525;SDS011;11429;50.842;4.386;2023-03-01T08:35:21;15.63;;;11.63;;
22525;SDS011;11429;50.842;4.386;2023-03-01T08:37:47;15.75;;;11.10;;
22525;SDS011;11429;50.842;4.386;2023-03-01T08:40:13;16.05;;;10.60;;
22525;SDS011;11429;50.842;4.386;2023-03-01T08:42:39;15.10;;;10.43;;
22525;SDS011;11429;50.842;4.386;2023-03-01T08:45:06;17.27;;;11.32;;
22525;SDS011;11429;50.842;4.386;2023-03-01T08:47:33;13.82;;;10.50;;
22525;SDS011;11429;50.842;4.386;2023-03-01T08:49:59;16.95;;;10.95;;
22525;SDS011;11429;50.842;4.386;2023-03-01T08:52:25;15.50;;;10.95;;
22525;SDS011;11429;50.842;4.386;2023-03-01T08:54:52;18.55;;;11.75;;
22525;SDS011;11429;50.842;4.386;2023-03-01T08:57:18;14.77;;;11.73;;
22525;SDS011;11429;50.842;4.386;2023-03-01T08:59:43;17.75;;;11.93;;
22525;SDS011;11429;50.842;4.386;2023-03-01T09:02:11;16.08;;;11.13;;
22525;SDS011;11429;50.842;4.386;2023-03-01T09:04:38;15.45;;;10.60;;
22525;SDS011;11429;50.842;4.386;2023-03-01T09:07:06;16.58;;;11.13;;
22525;SDS011;11429;50.842;4.386;2023-03-01T09:09:33;16.90;;;11.50;;
22525;SDS011;11429;50.842;4.386;2023-03-01T09:11:58;16.15;;;11.32;;
22525;SDS011;11429;50.842;4.386;2023-03-01T09:14:24;17.00;;;12.10;;
22525;SDS011;11429;50.842;4.386;2023-03-01T09:16:50;17.80;;;11.98;;
22525;SDS011;11429;50.842;4.386;2023-03-01T09:19:16;18.73;;;11.93;;
22525;SDS011;11429;50.842;4.386;2023-03-01T09:21:41;18.02;;;11.10;;
22525;SDS011;11429;50.842;4.386;2023-03-01T09:26:43;15.80;;;11.75;;
22525;SDS011;11429;50.842;4.386;2023-03-01T09:29:11;17.88;;;11.35;;
22525;SDS011;11429;50.842;4.386;2023-03-01T09:31:37;15.57;;;11.07;;
22525;SDS011;11429;50.842;4.386;2023-03-01T09:34:05;14.73;;;10.98;;
22525;SDS011;11429;50.842;4.386;2023-03-01T09:36:37;16.08;;;11.20;;
22525;SDS011;11429;50.842;4.386;2023-03-01T09:39:03;16.10;;;10.93;;
22525;SDS011;11429;50.842;4.386;2023-03-01T09:41:36;16.13;;;11.52;;
22525;SDS011;11429;50.842;4.386;2023-03-01T09:46:56;17.00;;;11.60;;
22525;SDS011;11429;50.842;4.386;2023-03-01T09:49:25;15.55;;;11.75;;
22525;SDS011;11429;50.842;4.386;2023-03-01T09:54:49;15.77;;;11.57;;
22525;SDS011;11429;50.842;4.386;2023-03-01T09:57:26;17.92;;;11.85;;
22525;SDS011;11429;50.842;4.386;2023-03-01T10:02:56;18.75;;;12.52;;
22525;SDS011;11429;50.842;4.386;2023-03-01T10:05:50;15.70;;;11.00;;
22525;SDS011;11429;50.842;4.386;2023-03-01T10:10:50;15.63;;;12.13;;
22525;SDS011;11429;50.842;4.386;2023-03-01T10:15:50;18.88;;;12.35;;
22525;SDS011;11429;50.842;4.386;2023-03-01T10:18:46;15.95;;;12.02;;
22525;SDS011;11429;50.842;4.386;2023-03-01T10:21:22;13.95;;;11.90;;
22525;SDS011;11429;50.842;4.386;2023-03-01T10:23:51;15.93;;;11.95;;
22525;SDS011;11429;50.842;4.386;2023-03-01T10:31:51;14.23;;;11.23;;
22525;SDS011;11429;50.842;4.386;2023-03-01T10:36:53;13.70;;;11.27;;
22525;SDS011;11429;50.842;4.386;2023-03-01T10:39:54;12.27;;;10.60;;
22525;SDS011;11429;50.842;4.386;2023-03-01T10:48:04;13.30;;;10.02;;
22525;SDS011;11429;50.842;4.386;2023-03-01T10:50:33;13.68;;;10.05;;
22525;SDS011;11429;50.842;4.386;2023-03-01T10:53:00;15.40;;;10.57;;
22525;SDS011;11429;50.842;4.386;2023-03-01T10:55:35;12.32;;;10.75;;
22525;SDS011;11429;50.842;4.386;2023-03-01T10:58:15;13.40;;;10.90;;
22525;SDS011;11429;50.842;4.386;2023-03-01T11:03:28;13.65;;;10.90;;
22525;SDS011;11429;50.842;4.386;2023-03-01T11:06:00;14.25;;;10.18;;
22525;SDS011;11429;50.842;4.386;2023-03-01T11:08:32;13.98;;;10.60;;
22525;SDS011;11429;50.842;4.386;2023-03-01T11:11:05;14.80;;;10.50;;
22525;SDS011;11429;50.842;4.386;2023-03-01T11:13:34;13.65;;;10.20;;
22525;SDS011;11429;50.842;4.386;2023-03-01T11:16:05;13.50;;;9.98;;
22525;SDS011;11429;50.842;4.386;2023-03-01T11:18:35;12.35;;;10.32;;
22525;SDS011;11429;50.842;4.386;2023-03-01T11:21:00;12.63;;;9.65;;
22525;SDS011;11429;50.842;4.386;2023-03-01T11:23:28;13.75;;;10.55;;
22525;SDS011;11429;50.842;4.386;2023-03-01T11:25:56;13.18;;;9.52;;
22525;SDS011;11429;50.842;4.386;2023-03-01T11:28:28;13.43;;;9.57;;
22525;SDS011;11429;50.842;4.386;2023-03-01T11:31:05;13.40;;;9.75;;
22525;SDS011;11429;50.842;4.386;2023-03-01T11:38:49;11.20;;;9.43;;
22525;SDS011;11429;50.842;4.386;2023-03-01T11:41:20;12.05;;;10.10;;
22525;SDS011;11429;50.842;4.386;2023-03-01T11:43:53;10.90;;;9.35;;
22525;SDS011;11429;50.842;4.386;2023-03-01T11:46:49;13.90;;;10.27;;
22525;SDS011;11429;50.842;4.386;2023-03-01T11:58:21;12.85;;;10.27;;
22525;SDS011;11429;50.842;4.386;2023-03-01T12:01:08;14.50;;;9.63;;
22525;SDS011;11429;50.842;4.386;2023-03-01T12:09:39;13.15;;;9.80;;
22525;SDS011;11429;50.842;4.386;2023-03-01T12:15:00;12.05;;;9.63;;
22525;SDS011;11429;50.842;4.386;2023-03-01T12:28:38;12.98;;;9.43;;
22525;SDS011;11429;50.842;4.386;2023-03-01T12:50:59;12.65;;;9.38;;
22525;SDS011;11429;50.842;4.386;2023-03-01T12:53:31;12.95;;;9.57;;
22525;SDS011;11429;50.842;4.386;2023-03-01T12:56:07;12.15;;;9.20;;
22525;SDS011;11429;50.842;4.386;2023-03-01T12:58:49;14.18;;;9.70;;
22525;SDS011;11429;50.842;4.386;2023-03-01T13:17:51;13.23;;;9.75;;
22525;SDS011;11429;50.842;4.386;2023-03-01T13:20:33;13.23;;;9.47;;
22525;SDS011;11429;50.842;4.386;2023-03-01T13:30:57;13.57;;;10.05;;
22525;SDS011;11429;50.842;4.386;2023-03-01T13:35:55;12.38;;;9.50;;
22525;SDS011;11429;50.842;4.386;2023-03-01T13:41:15;10.63;;;8.52;;
22525;SDS011;11429;50.842;4.386;2023-03-01T13:43:59;12.35;;;9.68;;
22525;SDS011;11429;50.842;4.386;2023-03-01T13:46:25;13.35;;;9.85;;
22525;SDS011;11429;50.842;4.386;2023-03-01T13:48:52;12.40;;;9.60;;
22525;SDS011;11429;50.842;4.386;2023-03-01T13:51:23;12.95;;;9.43;;
22525;SDS011;11429;50.842;4.386;2023-03-01T13:53:51;15.23;;;9.88;;
22525;SDS011;11429;50.842;4.386;2023-03-01T13:56:26;13.20;;;9.50;;
22525;SDS011;11429;50.842;4.386;2023-03-01T13:58:58;13.45;;;9.80;;
22525;SDS011;11429;50.842;4.386;2023-03-01T14:01:42;14.07;;;9.90;;
22525;SDS011;11429;50.842;4.386;2023-03-01T14:04:25;11.82;;;9.23;;
22525;SDS011;11429;50.842;4.386;2023-03-01T14:07:08;16.97;;;10.00;;
22525;SDS011;11429;50.842;4.386;2023-03-01T14:09:41;12.55;;;10.00;;
22525;SDS011;11429;50.842;4.386;2023-03-01T14:18:06;12.25;;;9.43;;
22525;SDS011;11429;50.842;4.386;2023-03-01T14:20:40;12.70;;;9.15;;
22525;SDS011;11429;50.842;4.386;2023-03-01T14:23:17;12.85;;;9.45;;
22525;SDS011;11429;50.842;4.386;2023-03-01T14:30:46;12.50;;;9.68;;
22525;SDS011;11429;50.842;4.386;2023-03-01T14:38:39;13.13;;;9.73;;
22525;SDS011;11429;50.842;4.386;2023-03-01T14:41:10;14.93;;;9.43;;
22525;SDS011;11429;50.842;4.386;2023-03-01T14:43:43;14.20;;;10.13;;
22525;SDS011;11429;50.842;4.386;2023-03-01T14:51:36;14.00;;;10.15;;
22525;SDS011;11429;50.842;4.386;2023-03-01T14:54:18;15.02;;;10.35;;
22525;SDS011;11429;50.842;4.386;2023-03-01T14:56:51;12.70;;;9.48;;
22525;SDS011;11429;50.842;4.386;2023-03-01T14:59:20;14.20;;;9.98;;
22525;SDS011;11429;50.842;4.386;2023-03-01T15:01:48;12.38;;;9.88;;
22525;SDS011;11429;50.842;4.386;2023-03-01T15:04:16;13.32;;;10.13;;
22525;SDS011;11429;50.842;4.386;2023-03-01T15:06:43;16.02;;;10.20;;
22525;SDS011;11429;50.842;4.386;2023-03-01T15:09:14;16.08;;;9.95;;
22525;SDS011;11429;50.842;4.386;2023-03-01T15:11:43;12.32;;;9.40;;
22525;SDS011;11429;50.842;4.386;2023-03-01T15:14:24;14.35;;;9.90;;
22525;SDS011;11429;50.842;4.386;2023-03-01T15:20:02;14.10;;;9.68;;
22525;SDS011;11429;50.842;4.386;2023-03-01T15:22:30;13.68;;;10.20;;
22525;SDS011;11429;50.842;4.386;2023-03-01T15:24:57;16.38;;;10.65;;
22525;SDS011;11429;50.842;4.386;2023-03-01T15:27:23;12.23;;;9.88;;
22525;SDS011;11429;50.842;4.386;2023-03-01T15:29:52;13.95;;;9.90;;
22525;SDS011;11429;50.842;4.386;2023-03-01T15:32:32;11.05;;;9.43;;
22525;SDS011;11429;50.842;4.386;2023-03-01T15:35:33;18.25;;;10.32;;
22525;SDS011;11429;50.842;4.386;2023-03-01T15:41:29;15.90;;;9.85;;
22525;SDS011;11429;50.842;4.386;2023-03-01T15:43:57;15.10;;;9.90;;
22525;SDS011;11429;50.842;4.386;2023-03-01T15:48:56;21.15;;;10.30;;
22525;SDS011;11429;50.842;4.386;2023-03-01T15:51:31;15.68;;;10.25;;
22525;SDS011;11429;50.842;4.386;2023-03-01T15:53:59;13.85;;;9.85;;
22525;SDS011;11429;50.842;4.386;2023-03-01T15:56:28;14.57;;;9.88;;
22525;SDS011;11429;50.842;4.386;2023-03-01T15:58:57;12.40;;;9.57;;
22525;SDS011;11429;50.842;4.386;2023-03-01T16:01:27;11.80;;;9.07;;
22525;SDS011;11429;50.842;4.386;2023-03-01T16:03:53;14.88;;;9.38;;
22525;SDS011;11429;50.842;4.386;2023-03-01T16:06:19;14.55;;;8.82;;
22525;SDS011;11429;50.842;4.386;2023-03-01T16:08:45;11.75;;;9.18;;
22525;SDS011;11429;50.842;4.386;2023-03-01T16:11:13;12.27;;;9.43;;
22525;SDS011;11429;50.842;4.386;2023-03-01T16:13:42;12.05;;;9.18;;
22525;SDS011;11429;50.842;4.386;2023-03-01T16:16:09;12.60;;;9.43;;
22525;SDS011;11429;50.842;4.386;2023-03-01T16:18:38;12.25;;;9.23;;
22525;SDS011;11429;50.842;4.386;2023-03-01T16:21:04;15.00;;;10.60;;
22525;SDS011;11429;50.842;4.386;2023-03-01T16:23:30;11.75;;;9.45;;
22525;SDS011;11429;50.842;4.386;2023-03-01T16:25:58;12.35;;;9.70;;
22525;SDS011;11429;50.842;4.386;2023-03-01T16:28:25;12.48;;;9.88;;
22525;SDS011;11429;50.842;4.386;2023-03-01T16:30:51;12.35;;;8.98;;
22525;SDS011;11429;50.842;4.386;2023-03-01T16:33:17;12.30;;;9.68;;
22525;SDS011;11429;50.842;4.386;2023-03-01T16:35:43;12.25;;;9.27;;
22525;SDS011;11429;50.842;4.386;2023-03-01T16:38:09;14.55;;;9.38;;
22525;SDS011;11429;50.842;4.386;2023-03-01T16:40:35;10.93;;;9.40;;
22525;SDS011;11429;50.842;4.386;2023-03-01T16:43:00;14.60;;;8.00;;
22525;SDS011;11429;50.842;4.386;2023-03-01T16:45:33;13.15;;;8.75;;
22525;SDS011;11429;50.842;4.386;2023-03-01T16:48:00;12.35;;;8.98;;
22525;SDS011;11429;50.842;4.386;2023-03-01T16:50:27;12.30;;;9.23;;
22525;SDS011;11429;50.842;4.386;2023-03-01T16:52:53;13.15;;;9.48;;
22525;SDS011;11429;50.842;4.386;2023-03-01T16:55:18;11.95;;;8.77;;
22525;SDS011;11429;50.842;4.386;2023-03-01T16:57:44;11.52;;;8.85;;
22525;SDS011;11429;50.842;4.386;2023-03-01T17:00:10;12.45;;;8.80;;
22525;SDS011;11429;50.842;4.386;2023-03-01T17:02:38;14.52;;;9.40;;
22525;SDS011;11429;50.842;4.386;2023-03-01T17:05:04;16.08;;;9.15;;
22525;SDS011;11429;50.842;4.386;2023-03-01T17:07:31;14.73;;;9.73;;
22525;SDS011;11429;50.842;4.386;2023-03-01T17:09:58;15.98;;;8.70;;
22525;SDS011;11429;50.842;4.386;2023-03-01T17:12:25;13.65;;;9.55;;
22525;SDS011;11429;50.842;4.386;2023-03-01T17:14:52;13.43;;;8.98;;
22525;SDS011;11429;50.842;4.386;2023-03-01T17:17:19;18.38;;;9.45;;
22525;SDS011;11429;50.842;4.386;2023-03-01T17:19:45;15.55;;;9.65;;
22525;SDS011;11429;50.842;4.386;2023-03-01T17:22:11;14.63;;;9.73;;
22525;SDS011;11429;50.842;4.386;2023-03-01T17:24:40;13.05;;;9.73;;
22525;SDS011;11429;50.842;4.386;2023-03-01T17:27:09;12.18;;;8.77;;
22525;SDS011;11429;50.842;4.386;2023-03-01T17:29:36;15.38;;;9.65;;
22525;SDS011;11429;50.842;4.386;2023-03-01T17:32:02;13.60;;;8.77;;
22525;SDS011;11429;50.842;4.386;2023-03-01T17:34:30;13.25;;;8.93;;
22525;SDS011;11429;50.842;4.386;2023-03-01T17:36:57;12.60;;;8.07;;